sensor_id;sensor_type;location;lat;lon;timestamp;P1;durP1;ratioP1;P2;durP2;ratioP2
80229;SDS011;69540;42.136;24.742;2023-07-31T00:02:00;0.70;;;0.70;;
80229;SDS011;69540;42.136;24.742;2023-07-31T00:04:26;0.40;;;0.40;;
80229;SDS011;69540;42.136;24.742;2023-07-31T00:06:51;0.70;;;0.70;;
80229;SDS011;69540;42.136;24.742;2023-07-31T00:09:17;0.60;;;0.60;;
80229;SDS011;69540;42.136;24.742;2023-07-31T00:11:43;0.57;;;0.57;;
80229;SDS011;69540;42.136;24.742;2023-07-31T00:14:08;0.75;;;0.75;;
80229;SDS011;69540;42.136;24.742;2023-07-31T00:16:34;0.40;;;0.40;;
80229;SDS011;69540;42.136;24.742;2023-07-31T00:18:59;0.60;;;0.60;;
80229;SDS011;69540;42.136;24.742;2023-07-31T00:21:25;0.65;;;0.65;;
80229;SDS011;69540;42.136;24.742;2023-07-31T00:23:51;0.60;;;0.60;;
80229;SDS011;69540;42.136;24.742;2023-07-31T00:26:16;0.50;;;0.50;;
80229;SDS011;69540;42.136;24.742;2023-07-31T00:28:42;0.70;;;0.70;;
80229;SDS011;69540;42.136;24.742;2023-07-31T00:31:08;0.68;;;0.68;;
80229;SDS011;69540;42.136;24.742;2023-07-31T00:33:34;0.60;;;0.60;;
80229;SDS011;69540;42.136;24.742;2023-07-31T00:36:00;0.77;;;0.77;;
80229;SDS011;69540;42.136;24.742;2023-07-31T00:38:25;0.88;;;0.70;;
80229;SDS011;69540;42.136;24.742;2023-07-31T00:40:51;0.60;;;0.60;;
80229;SDS011;69540;42.136;24.742;2023-07-31T00:43:17;0.60;;;0.60;;
80229;SDS011;69540;42.136;24.742;2023-07-31T00:45:43;0.68;;;0.68;;
80229;SDS011;69540;42.136;24.742;2023-07-31T00:48:09;0.55;;;0.55;;
80229;SDS011;69540;42.136;24.742;2023-07-31T00:50:35;0.70;;;0.70;;
80229;SDS011;69540;42.136;24.742;2023-07-31T00:53:01;0.50;;;0.50;;
80229;SDS011;69540;42.136;24.742;2023-07-31T00:55:27;0.50;;;0.50;;
80229;SDS011;69540;42.136;24.742;2023-07-31T00:57:52;0.50;;;0.50;;
80229;SDS011;69540;42.136;24.742;2023-07-31T01:00:20;0.60;;;0.60;;
80229;SDS011;69540;42.136;24.742;2023-07-31T01:02:46;0.63;;;0.60;;
80229;SDS011;69540;42.136;24.742;2023-07-31T01:05:17;0.80;;;0.80;;
80229;SDS011;69540;42.136;24.742;2023-07-31T01:08:07;0.63;;;0.63;;
80229;SDS011;69540;42.136;24.742;2023-07-31T01:10:48;0.57;;;0.57;;
80229;SDS011;69540;42.136;24.742;2023-07-31T01:13:16;0.68;;;0.68;;
80229;SDS011;69540;42.136;24.742;2023-07-31T01:15:43;0.70;;;0.70;;
80229;SDS011;69540;42.136;24.742;2023-07-31T01:18:09;0.70;;;0.70;;
80229;SDS011;69540;42.136;24.742;2023-07-31T01:20:34;0.52;;;0.52;;
80229;SDS011;69540;42.136;24.742;2023-07-31T01:23:08;0.47;;;0.47;;
80229;SDS011;69540;42.136;24.742;2023-07-31T01:28:35;0.70;;;0.70;;
80229;SDS011;69540;42.136;24.742;2023-07-31T01:31:09;0.50;;;0.50;;
80229;SDS011;69540;42.136;24.742;2023-07-31T01:33:37;0.52;;;0.52;;
80229;SDS011;69540;42.136;24.742;2023-07-31T01:36:04;0.70;;;0.70;;
80229;SDS011;69540;42.136;24.742;2023-07-31T01:38:30;0.63;;;0.63;;
80229;SDS011;69540;42.136;24.742;2023-07-31T01:40:56;0.50;;;0.50;;
80229;SDS011;69540;42.136;24.742;2023-07-31T01:43:21;0.40;;;0.40;;
80229;SDS011;69540;42.136;24.742;2023-07-31T01:45:48;1.00;;;0.68;;
80229;SDS011;69540;42.136;24.742;2023-07-31T01:48:13;0.70;;;0.70;;
80229;SDS011;69540;42.136;24.742;2023-07-31T01:50:39;0.70;;;0.70;;
80229;SDS011;69540;42.136;24.742;2023-07-31T01:53:05;0.60;;;0.60;;
80229;SDS011;69540;42.136;24.742;2023-07-31T01:55:30;0.60;;;0.60;;
80229;SDS011;69540;42.136;24.742;2023-07-31T01:57:56;0.80;;;0.80;;
80229;SDS011;69540;42.136;24.742;2023-07-31T02:00:21;0.43;;;0.43;;
80229;SDS011;69540;42.136;24.742;2023-07-31T02:02:47;0.70;;;0.70;;
80229;SDS011;69540;42.136;24.742;2023-07-31T02:05:13;0.60;;;0.60;;
80229;SDS011;69540;42.136;24.742;2023-07-31T02:07:38;0.50;;;0.50;;
80229;SDS011;69540;42.136;24.742;2023-07-31T02:10:04;0.47;;;0.47;;
80229;SDS011;69540;42.136;24.742;2023-07-31T02:12:30;0.60;;;0.60;;
80229;SDS011;69540;42.136;24.742;2023-07-31T02:14:57;0.63;;;0.63;;
80229;SDS011;69540;42.136;24.742;2023-07-31T02:17:22;0.55;;;0.55;;
80229;SDS011;69540;42.136;24.742;2023-07-31T02:19:48;0.70;;;0.70;;
80229;SDS011;69540;42.136;24.742;2023-07-31T02:22:14;0.65;;;0.65;;
80229;SDS011;69540;42.136;24.742;2023-07-31T02:24:39;0.77;;;0.77;;
80229;SDS011;69540;42.136;24.742;2023-07-31T02:27:05;0.98;;;0.98;;
80229;SDS011;69540;42.136;24.742;2023-07-31T02:29:31;0.68;;;0.68;;
80229;SDS011;69540;42.136;24.742;2023-07-31T02:31:56;0.73;;;0.73;;
80229;SDS011;69540;42.136;24.742;2023-07-31T02:34:22;0.77;;;0.77;;
80229;SDS011;69540;42.136;24.742;2023-07-31T02:36:47;0.80;;;0.80;;
80229;SDS011;69540;42.136;24.742;2023-07-31T02:39:13;1.15;;;1.05;;
80229;SDS011;69540;42.136;24.742;2023-07-31T02:41:39;1.00;;;1.00;;
80229;SDS011;69540;42.136;24.742;2023-07-31T02:44:04;1.55;;;0.90;;
80229;SDS011;69540;42.136;24.742;2023-07-31T02:46:30;1.25;;;1.15;;
80229;SDS011;69540;42.136;24.742;2023-07-31T02:48:56;1.20;;;1.10;;
80229;SDS011;69540;42.136;24.742;2023-07-31T02:51:22;1.50;;;1.05;;
80229;SDS011;69540;42.136;24.742;2023-07-31T02:53:47;1.27;;;1.10;;
80229;SDS011;69540;42.136;24.742;2023-07-31T02:56:13;1.00;;;1.00;;
80229;SDS011;69540;42.136;24.742;2023-07-31T02:58:39;1.20;;;1.10;;
80229;SDS011;69540;42.136;24.742;2023-07-31T03:01:04;1.20;;;1.20;;
80229;SDS011;69540;42.136;24.742;2023-07-31T03:03:30;1.15;;;1.15;;
80229;SDS011;69540;42.136;24.742;2023-07-31T03:05:56;0.98;;;0.98;;
80229;SDS011;69540;42.136;24.742;2023-07-31T03:08:21;1.00;;;1.00;;
80229;SDS011;69540;42.136;24.742;2023-07-31T03:10:48;1.08;;;1.08;;
80229;SDS011;69540;42.136;24.742;2023-07-31T03:13:13;1.30;;;1.20;;
80229;SDS011;69540;42.136;24.742;2023-07-31T03:15:41;1.00;;;1.00;;
80229;SDS011;69540;42.136;24.742;2023-07-31T03:18:08;0.90;;;0.90;;
80229;SDS011;69540;42.136;24.742;2023-07-31T03:20:34;1.02;;;1.02;;
80229;SDS011;69540;42.136;24.742;2023-07-31T03:22:59;1.05;;;1.05;;
80229;SDS011;69540;42.136;24.742;2023-07-31T03:25:25;1.65;;;0.90;;
80229;SDS011;69540;42.136;24.742;2023-07-31T03:27:50;1.02;;;1.02;;
80229;SDS011;69540;42.136;24.742;2023-07-31T03:30:16;1.02;;;1.02;;
80229;SDS011;69540;42.136;24.742;2023-07-31T03:32:42;1.85;;;1.35;;
80229;SDS011;69540;42.136;24.742;2023-07-31T03:35:07;2.90;;;1.88;;
80229;SDS011;69540;42.136;24.742;2023-07-31T03:37:33;2.35;;;2.25;;
80229;SDS011;69540;42.136;24.742;2023-07-31T03:39:59;2.50;;;2.30;;
80229;SDS011;69540;42.136;24.742;2023-07-31T03:42:24;2.90;;;2.40;;
80229;SDS011;69540;42.136;24.742;2023-07-31T03:44:50;3.65;;;2.70;;
80229;SDS011;69540;42.136;24.742;2023-07-31T03:47:15;3.38;;;2.70;;
80229;SDS011;69540;42.136;24.742;2023-07-31T03:49:41;3.47;;;2.95;;
80229;SDS011;69540;42.136;24.742;2023-07-31T03:52:07;3.53;;;3.22;;
80229;SDS011;69540;42.136;24.742;2023-07-31T03:54:32;3.35;;;3.03;;
80229;SDS011;69540;42.136;24.742;2023-07-31T03:56:58;3.42;;;3.05;;
80229;SDS011;69540;42.136;24.742;2023-07-31T03:59:24;5.75;;;3.10;;
80229;SDS011;69540;42.136;24.742;2023-07-31T04:01:49;2.92;;;2.53;;
80229;SDS011;69540;42.136;24.742;2023-07-31T04:04:15;4.35;;;2.78;;
80229;SDS011;69540;42.136;24.742;2023-07-31T04:06:40;5.45;;;3.10;;
80229;SDS011;69540;42.136;24.742;2023-07-31T04:09:06;3.05;;;2.78;;
80229;SDS011;69540;42.136;24.742;2023-07-31T04:11:31;3.15;;;2.78;;
80229;SDS011;69540;42.136;24.742;2023-07-31T04:13:57;3.38;;;3.08;;
80229;SDS011;69540;42.136;24.742;2023-07-31T04:16:23;3.00;;;2.70;;
80229;SDS011;69540;42.136;24.742;2023-07-31T04:18:48;4.22;;;3.20;;
80229;SDS011;69540;42.136;24.742;2023-07-31T04:21:14;3.78;;;3.33;;
80229;SDS011;69540;42.136;24.742;2023-07-31T04:23:40;3.00;;;2.70;;
80229;SDS011;69540;42.136;24.742;2023-07-31T04:26:05;4.05;;;3.00;;
80229;SDS011;69540;42.136;24.742;2023-07-31T04:28:31;2.80;;;2.60;;
80229;SDS011;69540;42.136;24.742;2023-07-31T04:30:57;3.58;;;3.13;;
80229;SDS011;69540;42.136;24.742;2023-07-31T04:33:22;3.88;;;2.95;;
80229;SDS011;69540;42.136;24.742;2023-07-31T04:35:49;3.15;;;2.85;;
80229;SDS011;69540;42.136;24.742;2023-07-31T04:38:19;5.05;;;3.05;;
80229;SDS011;69540;42.136;24.742;2023-07-31T04:40:46;3.42;;;3.13;;
80229;SDS011;69540;42.136;24.742;2023-07-31T04:43:12;3.20;;;2.90;;
80229;SDS011;69540;42.136;24.742;2023-07-31T04:45:37;2.90;;;2.70;;
80229;SDS011;69540;42.136;24.742;2023-07-31T04:48:03;3.20;;;2.90;;
80229;SDS011;69540;42.136;24.742;2023-07-31T04:50:29;3.97;;;3.22;;
80229;SDS011;69540;42.136;24.742;2023-07-31T04:52:55;3.22;;;3.03;;
80229;SDS011;69540;42.136;24.742;2023-07-31T04:55:21;4.47;;;3.00;;
80229;SDS011;69540;42.136;24.742;2023-07-31T04:57:47;3.05;;;2.85;;
80229;SDS011;69540;42.136;24.742;2023-07-31T05:00:13;3.50;;;3.03;;
80229;SDS011;69540;42.136;24.742;2023-07-31T05:02:38;3.67;;;3.33;;
80229;SDS011;69540;42.136;24.742;2023-07-31T05:05:04;3.50;;;3.00;;
80229;SDS011;69540;42.136;24.742;2023-07-31T05:07:30;3.92;;;3.30;;
80229;SDS011;69540;42.136;24.742;2023-07-31T05:09:55;3.13;;;2.83;;
80229;SDS011;69540;42.136;24.742;2023-07-31T05:12:21;3.03;;;2.72;;
80229;SDS011;69540;42.136;24.742;2023-07-31T05:14:46;3.30;;;2.97;;
80229;SDS011;69540;42.136;24.742;2023-07-31T05:17:12;3.88;;;2.90;;
80229;SDS011;69540;42.136;24.742;2023-07-31T05:19:38;3.05;;;2.85;;
80229;SDS011;69540;42.136;24.742;2023-07-31T05:22:03;3.30;;;3.00;;
80229;SDS011;69540;42.136;24.742;2023-07-31T05:24:29;3.60;;;2.95;;
80229;SDS011;69540;42.136;24.742;2023-07-31T05:26:55;3.45;;;2.90;;
80229;SDS011;69540;42.136;24.742;2023-07-31T05:29:20;2.80;;;2.60;;
80229;SDS011;69540;42.136;24.742;2023-07-31T05:31:46;3.17;;;2.97;;
80229;SDS011;69540;42.136;24.742;2023-07-31T05:34:12;3.17;;;2.90;;
80229;SDS011;69540;42.136;24.742;2023-07-31T05:36:37;2.90;;;2.70;;
80229;SDS011;69540;42.136;24.742;2023-07-31T05:39:03;3.00;;;2.80;;
80229;SDS011;69540;42.136;24.742;2023-07-31T05:41:32;3.53;;;3.10;;
80229;SDS011;69540;42.136;24.742;2023-07-31T05:43:57;3.58;;;2.90;;
80229;SDS011;69540;42.136;24.742;2023-07-31T05:46:23;3.00;;;2.80;;
80229;SDS011;69540;42.136;24.742;2023-07-31T05:48:49;2.90;;;2.70;;
80229;SDS011;69540;42.136;24.742;2023-07-31T05:51:14;2.85;;;2.65;;
80229;SDS011;69540;42.136;24.742;2023-07-31T05:53:40;2.75;;;2.50;;
80229;SDS011;69540;42.136;24.742;2023-07-31T05:56:06;2.70;;;2.50;;
80229;SDS011;69540;42.136;24.742;2023-07-31T05:58:31;2.65;;;2.45;;
80229;SDS011;69540;42.136;24.742;2023-07-31T06:00:57;3.00;;;2.65;;
80229;SDS011;69540;42.136;24.742;2023-07-31T06:03:23;2.80;;;2.60;;
80229;SDS011;69540;42.136;24.742;2023-07-31T06:05:48;3.00;;;2.72;;
80229;SDS011;69540;42.136;24.742;2023-07-31T06:08:15;3.22;;;2.92;;
80229;SDS011;69540;42.136;24.742;2023-07-31T06:10:40;2.63;;;2.42;;
80229;SDS011;69540;42.136;24.742;2023-07-31T06:13:06;2.92;;;2.72;;
80229;SDS011;69540;42.136;24.742;2023-07-31T06:15:31;2.55;;;2.35;;
80229;SDS011;69540;42.136;24.742;2023-07-31T06:17:57;2.70;;;2.50;;
80229;SDS011;69540;42.136;24.742;2023-07-31T06:20:24;2.80;;;2.60;;
80229;SDS011;69540;42.136;24.742;2023-07-31T06:22:51;2.83;;;2.58;;
80229;SDS011;69540;42.136;24.742;2023-07-31T06:25:16;3.25;;;2.50;;
80229;SDS011;69540;42.136;24.742;2023-07-31T06:27:42;2.70;;;2.50;;
80229;SDS011;69540;42.136;24.742;2023-07-31T06:30:07;2.63;;;2.42;;
80229;SDS011;69540;42.136;24.742;2023-07-31T06:32:33;3.05;;;2.50;;
80229;SDS011;69540;42.136;24.742;2023-07-31T06:34:59;2.55;;;2.45;;
80229;SDS011;69540;42.136;24.742;2023-07-31T06:37:25;2.65;;;2.45;;
80229;SDS011;69540;42.136;24.742;2023-07-31T06:39:50;3.38;;;2.50;;
80229;SDS011;69540;42.136;24.742;2023-07-31T06:42:17;2.83;;;2.55;;
80229;SDS011;69540;42.136;24.742;2023-07-31T06:44:43;2.60;;;2.38;;
80229;SDS011;69540;42.136;24.742;2023-07-31T06:47:08;2.70;;;2.50;;
80229;SDS011;69540;42.136;24.742;2023-07-31T06:49:34;2.92;;;2.58;;
80229;SDS011;69540;42.136;24.742;2023-07-31T06:52:00;2.97;;;2.67;;
80229;SDS011;69540;42.136;24.742;2023-07-31T06:54:25;3.10;;;2.75;;
80229;SDS011;69540;42.136;24.742;2023-07-31T06:56:52;2.75;;;2.40;;
80229;SDS011;69540;42.136;24.742;2023-07-31T06:59:18;3.13;;;2.58;;
80229;SDS011;69540;42.136;24.742;2023-07-31T07:01:43;2.95;;;2.63;;
80229;SDS011;69540;42.136;24.742;2023-07-31T07:04:09;4.30;;;2.50;;
80229;SDS011;69540;42.136;24.742;2023-07-31T07:06:35;3.47;;;2.40;;
80229;SDS011;69540;42.136;24.742;2023-07-31T07:09:00;2.60;;;2.40;;
80229;SDS011;69540;42.136;24.742;2023-07-31T07:11:26;2.67;;;2.45;;
80229;SDS011;69540;42.136;24.742;2023-07-31T07:13:51;3.55;;;2.60;;
80229;SDS011;69540;42.136;24.742;2023-07-31T07:16:17;3.33;;;2.38;;
80229;SDS011;69540;42.136;24.742;2023-07-31T07:18:43;2.90;;;2.70;;
80229;SDS011;69540;42.136;24.742;2023-07-31T07:21:08;2.72;;;2.53;;
80229;SDS011;69540;42.136;24.742;2023-07-31T07:23:34;2.60;;;2.47;;
80229;SDS011;69540;42.136;24.742;2023-07-31T07:26:00;3.08;;;2.40;;
80229;SDS011;69540;42.136;24.742;2023-07-31T07:28:25;2.72;;;2.53;;
80229;SDS011;69540;42.136;24.742;2023-07-31T07:30:51;2.78;;;2.58;;
80229;SDS011;69540;42.136;24.742;2023-07-31T07:33:18;2.60;;;2.35;;
80229;SDS011;69540;42.136;24.742;2023-07-31T07:35:44;2.67;;;2.47;;
80229;SDS011;69540;42.136;24.742;2023-07-31T07:38:09;2.50;;;2.40;;
80229;SDS011;69540;42.136;24.742;2023-07-31T07:40:39;2.70;;;2.50;;
80229;SDS011;69540;42.136;24.742;2023-07-31T07:43:05;2.78;;;2.50;;
80229;SDS011;69540;42.136;24.742;2023-07-31T07:45:30;2.53;;;2.33;;
80229;SDS011;69540;42.136;24.742;2023-07-31T07:47:56;2.60;;;2.50;;
80229;SDS011;69540;42.136;24.742;2023-07-31T07:50:21;2.90;;;2.70;;
80229;SDS011;69540;42.136;24.742;2023-07-31T07:52:47;2.90;;;2.63;;
80229;SDS011;69540;42.136;24.742;2023-07-31T07:55:13;2.47;;;2.33;;
80229;SDS011;69540;42.136;24.742;2023-07-31T07:57:38;2.63;;;2.20;;
80229;SDS011;69540;42.136;24.742;2023-07-31T08:00:04;2.88;;;2.67;;
80229;SDS011;69540;42.136;24.742;2023-07-31T08:02:30;2.90;;;2.70;;
80229;SDS011;69540;42.136;24.742;2023-07-31T08:04:56;3.13;;;2.80;;
80229;SDS011;69540;42.136;24.742;2023-07-31T08:07:22;3.22;;;2.65;;
80229;SDS011;69540;42.136;24.742;2023-07-31T08:09:47;2.70;;;2.50;;
80229;SDS011;69540;42.136;24.742;2023-07-31T08:12:13;2.67;;;2.47;;
80229;SDS011;69540;42.136;24.742;2023-07-31T08:14:39;3.83;;;2.60;;
80229;SDS011;69540;42.136;24.742;2023-07-31T08:17:05;2.92;;;2.67;;
80229;SDS011;69540;42.136;24.742;2023-07-31T08:19:30;5.25;;;2.65;;
80229;SDS011;69540;42.136;24.742;2023-07-31T08:21:56;2.80;;;2.60;;
80229;SDS011;69540;42.136;24.742;2023-07-31T08:24:21;3.45;;;2.70;;
80229;SDS011;69540;42.136;24.742;2023-07-31T08:26:47;2.70;;;2.50;;
80229;SDS011;69540;42.136;24.742;2023-07-31T08:29:13;4.47;;;2.80;;
80229;SDS011;69540;42.136;24.742;2023-07-31T08:31:39;2.70;;;2.50;;
80229;SDS011;69540;42.136;24.742;2023-07-31T08:34:04;2.58;;;2.38;;
80229;SDS011;69540;42.136;24.742;2023-07-31T08:36:31;2.60;;;2.40;;
80229;SDS011;69540;42.136;24.742;2023-07-31T08:38:57;2.83;;;2.63;;
80229;SDS011;69540;42.136;24.742;2023-07-31T08:41:22;3.08;;;2.70;;
80229;SDS011;69540;42.136;24.742;2023-07-31T08:43:51;3.28;;;2.90;;
80229;SDS011;69540;42.136;24.742;2023-07-31T08:46:18;4.35;;;3.03;;
80229;SDS011;69540;42.136;24.742;2023-07-31T08:48:45;3.92;;;2.63;;
80229;SDS011;69540;42.136;24.742;2023-07-31T08:51:13;2.80;;;2.60;;
80229;SDS011;69540;42.136;24.742;2023-07-31T08:53:39;3.00;;;2.70;;
80229;SDS011;69540;42.136;24.742;2023-07-31T08:56:05;3.00;;;2.80;;
80229;SDS011;69540;42.136;24.742;2023-07-31T08:58:32;3.38;;;3.00;;
80229;SDS011;69540;42.136;24.742;2023-07-31T09:01:00;6.75;;;2.80;;
80229;SDS011;69540;42.136;24.742;2023-07-31T09:03:28;2.83;;;2.63;;
80229;SDS011;69540;42.136;24.742;2023-07-31T09:05:58;4.00;;;2.78;;
80229;SDS011;69540;42.136;24.742;2023-07-31T09:08:24;3.38;;;2.55;;
80229;SDS011;69540;42.136;24.742;2023-07-31T09:10:54;2.83;;;2.60;;
80229;SDS011;69540;42.136;24.742;2023-07-31T09:13:26;2.90;;;2.70;;
80229;SDS011;69540;42.136;24.742;2023-07-31T09:15:53;2.92;;;2.72;;
80229;SDS011;69540;42.136;24.742;2023-07-31T09:18:18;2.97;;;2.55;;
80229;SDS011;69540;42.136;24.742;2023-07-31T09:20:59;5.13;;;2.85;;
80229;SDS011;69540;42.136;24.742;2023-07-31T09:23:42;5.75;;;2.72;;
80229;SDS011;69540;42.136;24.742;2023-07-31T09:26:34;2.80;;;2.60;;
80229;SDS011;69540;42.136;24.742;2023-07-31T09:29:05;3.83;;;2.90;;
80229;SDS011;69540;42.136;24.742;2023-07-31T09:31:43;3.97;;;2.70;;
80229;SDS011;69540;42.136;24.742;2023-07-31T09:34:10;3.70;;;2.50;;
80229;SDS011;69540;42.136;24.742;2023-07-31T09:36:42;3.28;;;2.65;;
80229;SDS011;69540;42.136;24.742;2023-07-31T09:39:12;3.78;;;2.67;;
80229;SDS011;69540;42.136;24.742;2023-07-31T09:41:39;2.75;;;2.55;;
80229;SDS011;69540;42.136;24.742;2023-07-31T09:44:06;3.00;;;2.80;;
80229;SDS011;69540;42.136;24.742;2023-07-31T09:46:32;3.83;;;2.70;;
80229;SDS011;69540;42.136;24.742;2023-07-31T09:49:10;2.90;;;2.70;;
80229;SDS011;69540;42.136;24.742;2023-07-31T09:51:37;3.20;;;2.90;;
80229;SDS011;69540;42.136;24.742;2023-07-31T09:54:08;3.95;;;2.80;;
80229;SDS011;69540;42.136;24.742;2023-07-31T09:56:36;2.92;;;2.72;;
80229;SDS011;69540;42.136;24.742;2023-07-31T09:59:05;3.28;;;3.05;;
80229;SDS011;69540;42.136;24.742;2023-07-31T10:01:32;2.67;;;2.47;;
80229;SDS011;69540;42.136;24.742;2023-07-31T10:03:58;4.80;;;2.95;;
80229;SDS011;69540;42.136;24.742;2023-07-31T10:06:26;3.22;;;2.92;;
80229;SDS011;69540;42.136;24.742;2023-07-31T10:08:51;2.97;;;2.78;;
80229;SDS011;69540;42.136;24.742;2023-07-31T10:11:19;2.90;;;2.70;;
80229;SDS011;69540;42.136;24.742;2023-07-31T10:13:46;3.78;;;2.95;;
80229;SDS011;69540;42.136;24.742;2023-07-31T10:16:12;3.17;;;2.88;;
80229;SDS011;69540;42.136;24.742;2023-07-31T10:18:39;3.20;;;3.00;;
80229;SDS011;69540;42.136;24.742;2023-07-31T10:21:05;3.30;;;3.00;;
80229;SDS011;69540;42.136;24.742;2023-07-31T10:23:32;3.35;;;2.70;;
80229;SDS011;69540;42.136;24.742;2023-07-31T10:25:58;3.17;;;2.80;;
80229;SDS011;69540;42.136;24.742;2023-07-31T10:28:25;3.00;;;2.80;;
80229;SDS011;69540;42.136;24.742;2023-07-31T10:30:52;3.28;;;3.05;;
80229;SDS011;69540;42.136;24.742;2023-07-31T10:33:18;3.20;;;2.90;;
80229;SDS011;69540;42.136;24.742;2023-07-31T10:35:46;3.10;;;2.90;;
80229;SDS011;69540;42.136;24.742;2023-07-31T10:38:13;3.08;;;2.88;;
80229;SDS011;69540;42.136;24.742;2023-07-31T10:40:39;3.88;;;3.20;;
80229;SDS011;69540;42.136;24.742;2023-07-31T10:43:05;3.10;;;2.80;;
80229;SDS011;69540;42.136;24.742;2023-07-31T10:45:37;2.90;;;2.70;;
80229;SDS011;69540;42.136;24.742;2023-07-31T10:48:04;3.00;;;2.80;;
80229;SDS011;69540;42.136;24.742;2023-07-31T10:50:32;3.13;;;2.92;;
80229;SDS011;69540;42.136;24.742;2023-07-31T10:53:02;3.38;;;2.95;;
80229;SDS011;69540;42.136;24.742;2023-07-31T10:55:40;3.30;;;3.00;;
80229;SDS011;69540;42.136;24.742;2023-07-31T10:58:11;3.05;;;2.75;;
80229;SDS011;69540;42.136;24.742;2023-07-31T11:00:42;3.00;;;2.80;;
80229;SDS011;69540;42.136;24.742;2023-07-31T11:03:10;3.97;;;2.75;;
80229;SDS011;69540;42.136;24.742;2023-07-31T11:05:47;3.78;;;3.10;;
80229;SDS011;69540;42.136;24.742;2023-07-31T11:10:48;3.03;;;2.72;;
80229;SDS011;69540;42.136;24.742;2023-07-31T11:13:16;3.13;;;2.92;;
80229;SDS011;69540;42.136;24.742;2023-07-31T11:15:42;2.97;;;2.78;;
80229;SDS011;69540;42.136;24.742;2023-07-31T11:18:08;4.45;;;2.90;;
80229;SDS011;69540;42.136;24.742;2023-07-31T11:20:36;3.15;;;2.90;;
80229;SDS011;69540;42.136;24.742;2023-07-31T11:23:07;3.00;;;2.80;;
80229;SDS011;69540;42.136;24.742;2023-07-31T11:25:34;2.97;;;2.78;;
80229;SDS011;69540;42.136;24.742;2023-07-31T11:28:08;2.90;;;2.70;;
80229;SDS011;69540;42.136;24.742;2023-07-31T11:30:35;3.10;;;2.90;;
80229;SDS011;69540;42.136;24.742;2023-07-31T11:33:02;3.20;;;2.97;;
80229;SDS011;69540;42.136;24.742;2023-07-31T11:35:35;2.92;;;2.72;;
80229;SDS011;69540;42.136;24.742;2023-07-31T11:38:07;3.58;;;3.20;;
80229;SDS011;69540;42.136;24.742;2023-07-31T11:40:40;3.50;;;3.20;;
80229;SDS011;69540;42.136;24.742;2023-07-31T11:43:09;2.95;;;2.75;;
80229;SDS011;69540;42.136;24.742;2023-07-31T11:48:10;3.05;;;2.80;;
80229;SDS011;69540;42.136;24.742;2023-07-31T11:50:42;2.90;;;2.70;;
80229;SDS011;69540;42.136;24.742;2023-07-31T11:53:08;3.00;;;2.80;;
80229;SDS011;69540;42.136;24.742;2023-07-31T11:55:34;2.90;;;2.70;;
80229;SDS011;69540;42.136;24.742;2023-07-31T11:58:00;3.28;;;3.08;;
80229;SDS011;69540;42.136;24.742;2023-07-31T12:00:26;2.80;;;2.60;;
80229;SDS011;69540;42.136;24.742;2023-07-31T12:02:52;3.17;;;2.97;;
80229;SDS011;69540;42.136;24.742;2023-07-31T12:05:18;2.95;;;2.75;;
80229;SDS011;69540;42.136;24.742;2023-07-31T12:07:51;3.03;;;2.83;;
80229;SDS011;69540;42.136;24.742;2023-07-31T12:10:29;3.28;;;3.00;;
80229;SDS011;69540;42.136;24.742;2023-07-31T12:13:06;2.92;;;2.72;;
80229;SDS011;69540;42.136;24.742;2023-07-31T12:15:42;3.63;;;2.90;;
80229;SDS011;69540;42.136;24.742;2023-07-31T12:18:10;3.00;;;2.80;;
80229;SDS011;69540;42.136;24.742;2023-07-31T12:20:43;3.10;;;2.90;;
80229;SDS011;69540;42.136;24.742;2023-07-31T12:23:19;2.88;;;2.67;;
80229;SDS011;69540;42.136;24.742;2023-07-31T12:28:34;3.03;;;2.78;;
80229;SDS011;69540;42.136;24.742;2023-07-31T12:31:10;2.90;;;2.70;;
80229;SDS011;69540;42.136;24.742;2023-07-31T12:33:46;2.95;;;2.75;;
80229;SDS011;69540;42.136;24.742;2023-07-31T12:36:18;2.95;;;2.75;;
80229;SDS011;69540;42.136;24.742;2023-07-31T12:38:49;3.00;;;2.70;;
80229;SDS011;69540;42.136;24.742;2023-07-31T12:41:15;3.22;;;2.90;;
80229;SDS011;69540;42.136;24.742;2023-07-31T12:43:41;2.90;;;2.60;;
80229;SDS011;69540;42.136;24.742;2023-07-31T12:46:08;2.92;;;2.72;;
80229;SDS011;69540;42.136;24.742;2023-07-31T12:48:34;2.80;;;2.60;;
80229;SDS011;69540;42.136;24.742;2023-07-31T12:51:00;3.00;;;2.80;;
80229;SDS011;69540;42.136;24.742;2023-07-31T12:53:27;2.63;;;2.53;;
80229;SDS011;69540;42.136;24.742;2023-07-31T12:55:53;2.83;;;2.67;;
80229;SDS011;69540;42.136;24.742;2023-07-31T12:58:19;2.88;;;2.67;;
80229;SDS011;69540;42.136;24.742;2023-07-31T13:00:44;3.05;;;2.80;;
80229;SDS011;69540;42.136;24.742;2023-07-31T13:03:10;3.45;;;2.80;;
80229;SDS011;69540;42.136;24.742;2023-07-31T13:05:36;2.58;;;2.40;;
80229;SDS011;69540;42.136;24.742;2023-07-31T13:08:01;2.90;;;2.70;;
80229;SDS011;69540;42.136;24.742;2023-07-31T13:10:27;3.05;;;2.63;;
80229;SDS011;69540;42.136;24.742;2023-07-31T13:12:53;2.75;;;2.55;;
80229;SDS011;69540;42.136;24.742;2023-07-31T13:15:21;3.15;;;2.90;;
80229;SDS011;69540;42.136;24.742;2023-07-31T13:17:46;2.67;;;2.58;;
80229;SDS011;69540;42.136;24.742;2023-07-31T13:20:12;2.90;;;2.70;;
80229;SDS011;69540;42.136;24.742;2023-07-31T13:22:38;3.10;;;2.80;;
80229;SDS011;69540;42.136;24.742;2023-07-31T13:25:04;2.88;;;2.67;;
80229;SDS011;69540;42.136;24.742;2023-07-31T13:27:30;2.67;;;2.47;;
80229;SDS011;69540;42.136;24.742;2023-07-31T13:29:56;4.30;;;2.75;;
80229;SDS011;69540;42.136;24.742;2023-07-31T13:32:22;3.13;;;2.40;;
80229;SDS011;69540;42.136;24.742;2023-07-31T13:34:48;2.78;;;2.58;;
80229;SDS011;69540;42.136;24.742;2023-07-31T13:37:14;2.80;;;2.60;;
80229;SDS011;69540;42.136;24.742;2023-07-31T13:39:40;2.50;;;2.40;;
80229;SDS011;69540;42.136;24.742;2023-07-31T13:42:08;3.13;;;2.83;;
80229;SDS011;69540;42.136;24.742;2023-07-31T13:44:40;2.90;;;2.70;;
80229;SDS011;69540;42.136;24.742;2023-07-31T13:47:07;2.60;;;2.50;;
80229;SDS011;69540;42.136;24.742;2023-07-31T13:49:33;2.65;;;2.45;;
80229;SDS011;69540;42.136;24.742;2023-07-31T13:51:59;2.75;;;2.55;;
80229;SDS011;69540;42.136;24.742;2023-07-31T13:54:25;3.33;;;2.70;;
80229;SDS011;69540;42.136;24.742;2023-07-31T13:56:51;2.80;;;2.60;;
80229;SDS011;69540;42.136;24.742;2023-07-31T13:59:19;2.67;;;2.53;;
80229;SDS011;69540;42.136;24.742;2023-07-31T14:01:45;2.85;;;2.65;;
80229;SDS011;69540;42.136;24.742;2023-07-31T14:04:11;2.90;;;2.70;;
80229;SDS011;69540;42.136;24.742;2023-07-31T14:06:37;2.92;;;2.72;;
80229;SDS011;69540;42.136;24.742;2023-07-31T14:09:03;2.60;;;2.40;;
80229;SDS011;69540;42.136;24.742;2023-07-31T14:11:30;2.78;;;2.58;;
80229;SDS011;69540;42.136;24.742;2023-07-31T14:13:56;2.67;;;2.47;;
80229;SDS011;69540;42.136;24.742;2023-07-31T14:16:22;2.55;;;2.35;;
80229;SDS011;69540;42.136;24.742;2023-07-31T14:18:48;2.80;;;2.60;;
80229;SDS011;69540;42.136;24.742;2023-07-31T14:21:13;2.90;;;2.70;;
80229;SDS011;69540;42.136;24.742;2023-07-31T14:23:40;2.75;;;2.55;;
80229;SDS011;69540;42.136;24.742;2023-07-31T14:26:07;2.88;;;2.67;;
80229;SDS011;69540;42.136;24.742;2023-07-31T14:28:33;2.50;;;2.40;;
80229;SDS011;69540;42.136;24.742;2023-07-31T14:30:58;2.50;;;2.40;;
80229;SDS011;69540;42.136;24.742;2023-07-31T14:33:24;2.83;;;2.65;;
80229;SDS011;69540;42.136;24.742;2023-07-31T14:35:49;2.50;;;2.40;;
80229;SDS011;69540;42.136;24.742;2023-07-31T14:38:16;2.90;;;2.70;;
80229;SDS011;69540;42.136;24.742;2023-07-31T14:40:42;2.53;;;2.10;;
80229;SDS011;69540;42.136;24.742;2023-07-31T14:43:08;2.50;;;2.30;;